« Back
NWS Peachtree City, Ga » Text Product » ATL Terminal Aerodrome Forecast


Printer-friendly Version
Current Version              Previous Versions:   1  2  3  4  5  6  7  8  9  

Terminal Aerodrome Forecast

159
FTUS42 KFFC 012300
TAFATL
TAF
KATL 012320Z 0200/0306 VRB05KT P6SM VCTS SCT050CB BKN150
     FM020100 VRB03KT P6SM FEW050 SCT150 BKN250
     FM021400 29006KT P6SM SCT035 SCT150
     FM021800 27007KT P6SM SCT050 SCT150 PROB30 0219/0223 VRB15G30KT
      5SM TSRA BKN045CB
     FM030100 VRB03KT P6SM FEW050 SCT100 SCT250=

USA.gov is the U.S. government's official web portal to all federal, state and local government web resources and services.